Terminal Aerodrome Forecast
Issued by NWS

Home | Current Version | Previous Version | Text Only | Print | Product List | Glossary On
Versions: 1 2 3 4 5 6 7 8 9 10 11 12 13 14 15 16 17
961
FTUS42 KFFC 191404 AAA
TAFRYY
TAF AMD
KRYY 191404Z 1914/2012 32014G22KT P6SM SCT030
     FM191600 32012G20KT P6SM SKC
     FM200200 34008KT P6SM SKC
     FM200600 34004KT P6SM SKC=

USA.gov is the U.S. government's official web portal to all federal, state and local government web resources and services.